Time;durP1;ratioP1;P1;durP2;ratioP2;P2;SDS_P1;SDS_P2;PMS_P1;PMS_P2;Temp;Humidity;BMP_temperature;BMP_pressure;BME280_temperature;BME280_humidity;BME280_pressure;Samples;Min_cycle;Max_cycle;Signal;HPM_P1;HPM_P2
2023/10/11 00:03:17;;;;;;;20.80;13.10;;;;;;;16.29;87.79;101347.53;5049481;28;20060;-64
2023/10/11 00:05:44;;;;;;;20.88;13.20;;;;;;;16.26;87.93;101343.41;5064180;28;20545;-64
2023/10/11 00:08:16;;;;;;;22.38;12.88;;;;;;;16.23;88.02;101341.31;5031336;28;20469;-64
2023/10/11 00:10:53;;;;;;;20.40;13.18;;;;;;;16.25;88.02;101340.97;5061956;28;20032;-64
2023/10/11 00:13:20;;;;;;;20.33;13.70;;;;;;;16.22;87.99;101340.47;5073456;28;20025;-65
2023/10/11 00:15:50;;;;;;;21.10;12.70;;;;;;;16.18;88.51;101341.47;5051194;28;20032;-65
2023/10/11 00:18:26;;;;;;;19.90;13.02;;;;;;;16.14;88.69;101343.31;5033406;28;20041;-64
2023/10/11 00:20:56;;;;;;;20.90;13.00;;;;;;;16.16;88.13;101352.16;5034145;28;20056;-64
2023/10/11 00:23:24;;;;;;;20.27;13.18;;;;;;;16.11;88.37;101343.97;5032031;28;20055;-64
2023/10/11 00:25:51;;;;;;;21.00;13.75;;;;;;;16.06;88.48;101337.38;5059250;28;20025;-64
2023/10/11 00:28:23;;;;;;;22.48;13.50;;;;;;;16.03;88.53;101334.44;5058077;28;20037;-63
2023/10/11 00:30:57;;;;;;;21.90;13.15;;;;;;;16.00;88.74;101338.72;5064366;28;20449;-64
2023/10/11 00:33:23;;;;;;;21.80;13.52;;;;;;;16.04;88.12;101333.31;5064357;28;20028;-65
2023/10/11 00:35:50;;;;;;;22.33;13.15;;;;;;;16.01;88.77;101337.59;5068847;28;20471;-64
2023/10/11 00:38:20;;;;;;;21.65;13.05;;;;;;;15.94;89.28;101330.84;5052032;28;20025;-63
2023/10/11 00:41:01;;;;;;;21.75;13.32;;;;;;;15.98;88.84;101334.63;5051856;28;20025;-63
2023/10/11 00:43:38;;;;;;;21.75;12.60;;;;;;;15.94;89.27;101336.44;5067356;28;20048;-64
2023/10/11 00:46:08;;;;;;;19.73;12.65;;;;;;;15.93;89.81;101332.84;5031680;28;20029;-63
2023/10/11 00:48:38;;;;;;;22.27;13.05;;;;;;;15.91;89.13;101332.34;5048573;28;20383;-64
2023/10/11 00:51:07;;;;;;;21.15;13.10;;;;;;;15.89;89.05;101315.94;5033896;28;20061;-64
2023/10/11 00:53:34;;;;;;;21.90;12.68;;;;;;;15.88;89.63;101330.19;5056496;28;20029;-63
2023/10/11 00:56:04;;;;;;;20.55;13.20;;;;;;;15.87;89.22;101323.81;5052978;28;20464;-64
2023/10/11 00:58:30;;;;;;;22.48;13.00;;;;;;;15.84;89.10;101318.09;5053391;28;20110;-64
2023/10/11 01:00:56;;;;;;;19.52;12.48;;;;;;;15.91;88.76;101318.41;5060603;28;20033;-65
2023/10/11 01:03:23;;;;;;;20.98;12.65;;;;;;;15.86;88.75;101321.38;5067838;28;20052;-66
2023/10/11 01:05:49;;;;;;;21.52;13.32;;;;;;;15.84;89.91;101320.88;5050822;28;20029;-64
2023/10/11 01:08:14;;;;;;;21.58;13.15;;;;;;;15.86;89.09;101316.59;5057899;28;20335;-65
2023/10/11 01:10:45;;;;;;;21.48;14.15;;;;;;;15.86;89.37;101318.59;5052896;28;20021;-64
2023/10/11 01:13:14;;;;;;;21.38;13.93;;;;;;;15.82;89.49;101314.78;5069302;28;20051;-65
2023/10/11 01:15:42;;;;;;;21.67;14.68;;;;;;;15.75;90.12;101315.25;5056629;28;20068;-65
2023/10/11 01:18:08;;;;;;;21.65;13.68;;;;;;;15.75;90.09;101316.09;5061612;28;20025;-64
2023/10/11 01:20:39;;;;;;;20.52;14.90;;;;;;;15.75;90.47;101320.84;5061214;28;20039;-65
2023/10/11 01:23:04;;;;;;;21.48;13.60;;;;;;;15.69;90.98;101311.81;5064759;28;20111;-64
2023/10/11 01:25:29;;;;;;;22.33;14.20;;;;;;;15.66;90.93;101312.50;5064084;28;20178;-64
2023/10/11 01:27:55;;;;;;;23.50;14.27;;;;;;;15.66;90.87;101315.28;5045544;28;20032;-64
2023/10/11 01:30:20;;;;;;;21.58;13.80;;;;;;;15.59;91.34;101309.38;5071963;28;20024;-65
2023/10/11 01:32:47;;;;;;;21.55;13.73;;;;;;;15.54;92.00;101307.56;5042980;28;20349;-66
2023/10/11 01:35:19;;;;;;;21.33;14.20;;;;;;;15.44;92.11;101299.56;5061855;28;20033;-67
2023/10/11 01:37:44;;;;;;;22.67;14.32;;;;;;;15.41;92.55;101303.81;5051710;28;20453;-65
2023/10/11 01:40:24;;;;;;;21.88;13.80;;;;;;;15.41;92.25;101305.78;5056248;28;20025;-66
2023/10/11 01:42:52;;;;;;;22.13;13.90;;;;;;;15.38;93.47;101303.63;5064112;28;20065;-65
2023/10/11 01:45:19;;;;;;;21.80;14.20;;;;;;;15.35;93.53;101302.34;5051429;28;20025;-64
2023/10/11 01:47:50;;;;;;;21.75;14.32;;;;;;;15.32;93.50;101302.97;5051591;28;20033;-64
2023/10/11 01:50:17;;;;;;;21.20;13.95;;;;;;;15.29;93.92;101296.09;5051704;28;20029;-64
2023/10/11 01:52:47;;;;;;;22.10;14.40;;;;;;;15.27;94.71;101292.00;5033858;28;20077;-65
2023/10/11 01:55:13;;;;;;;20.75;13.38;;;;;;;15.24;94.35;101287.91;5062395;28;20033;-63
2023/10/11 01:57:41;;;;;;;21.42;13.27;;;;;;;15.25;94.40;101292.34;5067334;28;20119;-64
2023/10/11 02:00:13;;;;;;;21.90;13.60;;;;;;;15.29;94.25;101281.34;5050958;28;20036;-63
2023/10/11 02:02:44;;;;;;;20.65;13.50;;;;;;;15.25;94.29;101281.19;5061986;28;20021;-64
2023/10/11 02:05:11;;;;;;;21.05;13.10;;;;;;;15.24;94.39;101278.72;5057991;28;20045;-64
2023/10/11 02:07:39;;;;;;;22.52;14.23;;;;;;;15.19;94.96;101265.75;5055553;28;20048;-64
2023/10/11 02:10:06;;;;;;;23.20;14.45;;;;;;;15.15;95.46;101273.16;5047883;28;20651;-64
2023/10/11 02:12:31;;;;;;;20.17;13.65;;;;;;;15.11;96.15;101275.75;5052546;28;20116;-63
2023/10/11 02:14:57;;;;;;;21.35;13.98;;;;;;;15.11;95.75;101267.38;5052142;28;20169;-64
2023/10/11 02:17:23;;;;;;;20.77;14.70;;;;;;;15.07;96.37;101274.78;5050235;28;20082;-63
2023/10/11 02:19:49;;;;;;;22.10;14.00;;;;;;;15.03;96.46;101262.63;5070939;28;20032;-64
2023/10/11 02:22:18;;;;;;;21.90;14.45;;;;;;;15.02;96.64;101252.63;5066790;28;20067;-64
2023/10/11 02:24:44;;;;;;;21.58;14.32;;;;;;;14.93;97.08;101251.81;5066372;28;20032;-66
2023/10/11 02:27:17;;;;;;;22.60;14.63;;;;;;;14.94;97.25;101256.25;5062902;28;20029;-64
2023/10/11 02:29:42;;;;;;;21.08;14.60;;;;;;;14.90;97.70;101253.28;5051384;28;20028;-64
2023/10/11 02:32:08;;;;;;;22.27;14.95;;;;;;;14.85;98.04;101260.97;5032862;28;20036;-63
2023/10/11 02:34:35;;;;;;;20.73;14.80;;;;;;;14.82;98.19;101248.53;5060011;28;20027;-65
2023/10/11 02:37:04;;;;;;;21.52;14.43;;;;;;;14.74;98.84;101254.91;5050669;28;20033;-63
2023/10/11 02:39:32;;;;;;;22.80;14.63;;;;;;;14.72;98.78;101258.03;5071038;28;20017;-63
2023/10/11 02:41:58;;;;;;;20.80;14.23;;;;;;;14.71;99.53;101263.91;5064306;28;20082;-63
2023/10/11 02:44:26;;;;;;;23.60;13.82;;;;;;;14.70;99.09;101251.94;5063697;28;20489;-63
2023/10/11 02:46:53;;;;;;;22.00;14.57;;;;;;;14.68;99.38;101262.59;5059386;28;20029;-64
2023/10/11 02:49:21;;;;;;;22.25;15.00;;;;;;;14.65;99.51;101255.69;5053573;28;20093;-63
2023/10/11 02:51:53;;;;;;;21.77;14.48;;;;;;;14.62;99.71;101250.75;5065721;28;20020;-63
2023/10/11 02:54:20;;;;;;;21.63;15.38;;;;;;;14.65;99.69;101247.31;5053640;28;20032;-63
2023/10/11 02:56:48;;;;;;;24.55;14.77;;;;;;;14.60;100.00;101258.59;5070347;28;20154;-63
2023/10/11 02:59:23;;;;;;;22.38;15.18;;;;;;;14.56;100.00;101251.22;5066052;28;20040;-63
2023/10/11 03:01:59;;;;;;;22.80;14.43;;;;;;;14.57;100.00;101255.66;5053521;28;20124;-64
2023/10/11 03:04:29;;;;;;;20.75;14.10;;;;;;;14.51;100.00;101241.88;5033741;28;20029;-63
2023/10/11 03:06:55;;;;;;;21.80;14.20;;;;;;;14.49;100.00;101249.72;5050196;28;20024;-64
2023/10/11 03:09:26;;;;;;;23.20;14.50;;;;;;;14.47;100.00;101248.44;5065399;28;20040;-66
2023/10/11 03:11:51;;;;;;;21.90;14.20;;;;;;;14.41;100.00;101231.03;5061874;28;20119;-65
2023/10/11 03:14:20;;;;;;;22.08;14.63;;;;;;;14.42;100.00;101237.41;5069177;28;20119;-65
2023/10/11 03:16:53;;;;;;;22.27;15.30;;;;;;;14.41;100.00;101230.22;5052170;28;20052;-64
2023/10/11 03:19:20;;;;;;;21.33;14.60;;;;;;;14.35;100.00;101226.78;5049948;28;20452;-64
2023/10/11 03:21:47;;;;;;;21.58;14.95;;;;;;;14.30;100.00;101230.53;5055992;28;20151;-64
2023/10/11 03:24:14;;;;;;;22.73;14.60;;;;;;;14.31;100.00;101234.13;5067080;28;20025;-64
2023/10/11 03:26:39;;;;;;;23.33;15.55;;;;;;;14.25;100.00;101235.41;5049796;28;20090;-64
2023/10/11 03:29:05;;;;;;;22.98;15.38;;;;;;;14.23;100.00;101234.91;5050325;28;20028;-63
2023/10/11 03:31:33;;;;;;;21.55;15.63;;;;;;;14.24;100.00;101222.66;5050004;28;20391;-62
2023/10/11 03:34:11;;;;;;;23.38;15.60;;;;;;;14.19;100.00;101226.41;5063329;28;20177;-64
2023/10/11 03:36:51;;;;;;;21.30;15.50;;;;;;;14.18;100.00;101230.31;5068391;28;20032;-64
2023/10/11 03:39:28;;;;;;;23.73;15.48;;;;;;;14.13;100.00;101228.50;5051731;28;20154;-63
2023/10/11 03:42:07;;;;;;;23.02;15.20;;;;;;;14.13;100.00;101233.22;5060996;28;20041;-63
2023/10/11 03:44:36;;;;;;;22.80;15.15;;;;;;;14.13;100.00;101247.97;5051592;28;20094;-63
2023/10/11 03:47:06;;;;;;;22.75;15.70;;;;;;;14.15;100.00;101248.47;5051240;28;20202;-63
2023/10/11 03:51:57;;;;;;;22.17;15.15;;;;;;;14.05;100.00;101226.50;5066710;28;20115;-64
2023/10/11 03:54:22;;;;;;;22.92;15.18;;;;;;;14.02;100.00;101225.19;5050589;28;20039;-63
2023/10/11 03:56:55;;;;;;;22.73;15.57;;;;;;;14.00;100.00;101226.63;5049053;28;20452;-64
2023/10/11 03:59:28;;;;;;;23.42;16.45;;;;;;;13.96;100.00;101225.66;5037299;28;20044;-65
2023/10/11 04:01:54;;;;;;;22.15;15.45;;;;;;;13.96;100.00;101229.22;5064357;28;20056;-66
2023/10/11 04:04:21;;;;;;;24.25;15.80;;;;;;;13.95;100.00;101229.56;5052147;28;20108;-65
2023/10/11 04:06:51;;;;;;;22.52;15.57;;;;;;;13.92;100.00;101217.13;5045858;28;20029;-65
2023/10/11 04:09:31;;;;;;;22.65;15.30;;;;;;;13.89;100.00;101224.13;5049969;28;20021;-64
2023/10/11 04:11:58;;;;;;;23.27;15.88;;;;;;;13.88;100.00;101219.72;5049639;28;20136;-65
2023/10/11 04:14:25;;;;;;;24.73;15.82;;;;;;;13.87;100.00;101215.31;5045043;28;20032;-64
2023/10/11 04:16:56;;;;;;;22.33;16.08;;;;;;;13.83;100.00;101217.06;5035314;28;20033;-64
2023/10/11 04:19:21;;;;;;;23.90;15.93;;;;;;;13.80;100.00;101198.22;5043283;28;20024;-65
2023/10/11 04:24:19;;;;;;;23.52;16.35;;;;;;;13.76;100.00;101201.97;5029648;28;20044;-64
2023/10/11 04:26:57;;;;;;;22.80;16.50;;;;;;;13.75;100.00;101194.75;5028510;28;20103;-64
2023/10/11 04:29:25;;;;;;;24.83;16.55;;;;;;;13.76;100.00;101191.69;5034278;28;20048;-64
2023/10/11 04:34:31;;;;;;;22.83;16.73;;;;;;;13.72;100.00;101197.06;5049424;28;20438;-64
2023/10/11 04:36:57;;;;;;;23.60;16.75;;;;;;;13.69;100.00;101202.44;5048722;28;20108;-64
2023/10/11 04:39:33;;;;;;;24.05;17.00;;;;;;;13.69;100.00;101200.47;5036851;28;20111;-65
2023/10/11 04:41:59;;;;;;;24.70;17.35;;;;;;;13.70;100.00;101204.06;5037887;28;20035;-65
2023/10/11 04:44:42;;;;;;;23.60;16.83;;;;;;;13.68;100.00;101203.59;5058734;28;20028;-65
2023/10/11 04:47:10;;;;;;;23.83;17.77;;;;;;;13.63;100.00;101201.75;5066119;28;20112;-63
2023/10/11 04:49:36;;;;;;;22.90;16.60;;;;;;;13.60;100.00;101196.03;5054672;28;20020;-63
2023/10/11 04:52:10;;;;;;;24.95;17.55;;;;;;;13.60;100.00;101196.81;5049757;28;20350;-64
2023/10/11 04:54:36;;;;;;;25.63;17.27;;;;;;;13.57;100.00;101206.63;5065564;28;20036;-64
2023/10/11 04:57:07;;;;;;;25.73;17.60;;;;;;;13.55;100.00;101203.34;5054317;28;20025;-64
2023/10/11 05:02:15;;;;;;;22.90;16.90;;;;;;;13.57;100.00;101214.97;5058352;28;20490;-64
2023/10/11 05:04:44;;;;;;;23.85;17.52;;;;;;;13.55;100.00;101220.03;5070045;28;20070;-64
2023/10/11 05:07:10;;;;;;;24.20;16.85;;;;;;;13.51;100.00;101210.66;5066584;28;20032;-64
2023/10/11 05:09:40;;;;;;;22.80;17.17;;;;;;;13.48;100.00;101210.47;5066366;28;20160;-66
2023/10/11 05:25:37;;;;;;;23.80;16.60;;;;;;;13.40;100.00;101214.88;5053228;28;20383;-65
2023/10/11 05:28:07;;;;;;;24.30;16.45;;;;;;;13.38;100.00;101223.47;5036586;28;20144;-66
2023/10/11 05:30:34;;;;;;;25.75;17.20;;;;;;;13.36;100.00;101227.69;5032110;28;20033;-64
2023/10/11 05:52:07;;;;;;;25.23;17.20;;;;;;;13.28;100.00;101229.25;5050971;28;20322;-63
2023/10/11 05:54:36;;;;;;;26.63;18.38;;;;;;;13.29;100.00;101225.34;5047623;28;20036;-65
2023/10/11 05:57:04;;;;;;;24.25;17.67;;;;;;;13.27;100.00;101227.66;5051062;28;20127;-64
2023/10/11 05:59:35;;;;;;;26.90;17.60;;;;;;;13.25;100.00;101236.28;5056380;28;20147;-64
2023/10/11 06:02:02;;;;;;;25.60;17.67;;;;;;;13.30;100.00;101229.78;5051318;28;20029;-65
2023/10/11 06:04:28;;;;;;;25.75;16.90;;;;;;;13.34;100.00;101239.13;5070529;28;20124;-64
2023/10/11 06:06:57;;;;;;;23.85;16.13;;;;;;;13.34;100.00;101239.13;5068195;28;20115;-64
2023/10/11 06:09:26;;;;;;;25.15;16.42;;;;;;;13.36;100.00;101222.97;5012786;28;20034;-63
2023/10/11 06:11:51;;;;;;;26.40;16.75;;;;;;;13.33;100.00;101219.97;5049210;28;20388;-64
2023/10/11 06:14:18;;;;;;;25.63;16.33;;;;;;;13.35;100.00;101226.88;5024372;28;20037;-63
2023/10/11 06:16:57;;;;;;;25.40;16.27;;;;;;;13.37;100.00;101226.56;5054994;28;20040;-64
2023/10/11 06:19:26;;;;;;;24.05;16.58;;;;;;;13.41;100.00;101225.66;5056390;28;20460;-64
2023/10/11 06:21:56;;;;;;;25.42;16.65;;;;;;;13.47;100.00;101223.56;5055832;28;20041;-64
2023/10/11 06:24:32;;;;;;;25.05;16.20;;;;;;;13.49;100.00;101215.75;5050822;28;20035;-65
2023/10/11 06:28:09;;;;;;;24.50;16.48;;;;;;;13.57;100.00;101222.47;5054906;28;20028;-64
2023/10/11 06:29:45;;;;;;;24.63;16.48;;;;;;;13.58;100.00;101221.34;5038429;28;20441;-65
2023/10/11 06:32:18;;;;;;;24.45;16.40;;;;;;;13.63;100.00;101223.16;5051468;28;20036;-65
2023/10/11 06:34:47;;;;;;;25.00;16.25;;;;;;;13.70;100.00;101218.81;5051247;28;20031;-64
2023/10/11 06:37:16;;;;;;;26.35;18.08;;;;;;;13.74;100.00;101221.75;5064876;28;20433;-65
2023/10/11 06:42:13;;;;;;;26.70;16.23;;;;;;;13.87;100.00;101232.00;5070859;28;20037;-65
2023/10/11 06:44:42;;;;;;;24.50;15.60;;;;;;;13.98;100.00;101246.44;5061756;28;20048;-64
2023/10/11 06:47:11;;;;;;;26.00;16.70;;;;;;;14.04;100.00;101242.34;5063292;28;20104;-64
2023/10/11 06:49:47;;;;;;;24.00;16.20;;;;;;;14.12;100.00;101237.19;5066784;28;20046;-64
2023/10/11 06:52:22;;;;;;;24.58;16.92;;;;;;;14.19;100.00;101232.78;5052168;28;20202;-67
2023/10/11 06:55:07;;;;;;;25.83;16.30;;;;;;;14.23;100.00;101238.50;5057101;28;20614;-65
2023/10/11 06:57:39;;;;;;;24.95;16.98;;;;;;;14.29;100.00;101237.25;5044544;28;20029;-65
2023/10/11 07:00:23;;;;;;;27.08;17.48;;;;;;;14.35;100.00;101238.72;5030325;28;20408;-65
2023/10/11 07:02:52;;;;;;;26.55;16.58;;;;;;;14.41;100.00;101238.56;5048285;28;20035;-65
2023/10/11 07:05:18;;;;;;;26.50;17.23;;;;;;;14.45;100.00;101231.22;5047448;28;20044;-66
2023/10/11 07:07:47;;;;;;;24.92;16.90;;;;;;;14.53;100.00;101237.97;5047311;28;20032;-67
2023/10/11 07:10:29;;;;;;;25.42;17.27;;;;;;;14.55;100.00;101247.63;5047436;28;20078;-64
2023/10/11 07:13:05;;;;;;;25.30;16.95;;;;;;;14.60;100.00;101239.09;5047371;28;20464;-64
2023/10/11 07:15:40;;;;;;;25.23;17.15;;;;;;;14.74;100.00;101254.91;5047789;28;20021;-64
2023/10/11 07:18:11;;;;;;;25.90;16.83;;;;;;;14.81;100.00;101270.00;5048126;28;20665;-66
2023/10/11 07:20:47;;;;;;;24.05;16.48;;;;;;;14.88;100.00;101268.69;5048045;28;20474;-64
2023/10/11 07:23:18;;;;;;;25.25;16.85;;;;;;;15.02;100.00;101283.28;5048912;28;20114;-65
2023/10/11 07:25:45;;;;;;;24.73;17.02;;;;;;;15.13;100.00;101286.59;5048943;28;20057;-65
2023/10/11 07:28:14;;;;;;;23.52;16.35;;;;;;;15.22;100.00;101290.19;5048403;28;20118;-64
2023/10/11 07:30:39;;;;;;;24.55;16.30;;;;;;;15.33;100.00;101290.69;5048439;28;20558;-63
2023/10/11 07:33:05;;;;;;;25.45;16.42;;;;;;;15.38;100.00;101298.06;5030496;28;20040;-65
2023/10/11 07:35:32;;;;;;;26.05;15.85;;;;;;;15.46;100.00;101302.81;5047553;28;20037;-65
2023/10/11 07:38:00;;;;;;;25.63;15.90;;;;;;;15.50;100.00;101292.66;5062499;28;20541;-65
2023/10/11 07:40:34;;;;;;;24.30;15.77;;;;;;;15.58;100.00;101291.84;5048017;28;20435;-62
2023/10/11 07:43:00;;;;;;;23.17;15.95;;;;;;;15.68;100.00;101284.28;5038568;28;20035;-66
2023/10/11 07:45:26;;;;;;;22.73;16.17;;;;;;;15.74;100.00;101285.72;5035255;28;20178;-65
2023/10/11 07:47:52;;;;;;;27.98;17.50;;;;;;;15.79;100.00;101271.63;5048255;28;20108;-64
2023/10/11 07:50:24;;;;;;;25.13;16.58;;;;;;;15.87;100.00;101270.81;5050757;28;20040;-65
2023/10/11 07:52:51;;;;;;;27.10;16.90;;;;;;;15.94;100.00;101272.25;5056667;28;20362;-66
2023/10/11 07:55:17;;;;;;;24.67;16.45;;;;;;;16.00;100.00;101277.34;5029782;28;20032;-63
2023/10/11 07:57:46;;;;;;;24.67;16.80;;;;;;;16.11;100.00;101275.00;5063980;28;20036;-65
2023/10/11 08:00:18;;;;;;;25.23;17.10;;;;;;;16.19;100.00;101276.13;5063929;28;20029;-65
2023/10/11 08:02:55;;;;;;;29.42;18.05;;;;;;;16.24;100.00;101289.09;5047983;28;20496;-66
2023/10/11 08:05:21;;;;;;;26.65;17.00;;;;;;;16.28;100.00;101276.91;5048006;28;20033;-65
2023/10/11 08:07:46;;;;;;;27.30;16.92;;;;;;;16.32;100.00;101277.88;5047733;28;20032;-66
2023/10/11 08:10:33;;;;;;;23.38;16.75;;;;;;;16.32;100.00;101277.06;5027721;28;20108;-65
2023/10/11 08:12:59;;;;;;;24.65;16.60;;;;;;;16.25;100.00;101271.19;5048935;28;20464;-66
2023/10/11 08:15:25;;;;;;;24.67;16.52;;;;;;;16.23;100.00;101277.09;5067019;28;20036;-66
2023/10/11 08:17:51;;;;;;;26.05;16.38;;;;;;;16.24;100.00;101284.34;5060933;28;20406;-67
2023/10/11 08:20:16;;;;;;;25.17;16.77;;;;;;;16.23;100.00;101277.09;5057293;28;20064;-64
2023/10/11 08:22:42;;;;;;;26.38;17.35;;;;;;;16.27;100.00;101271.69;4994151;28;1054303;-66
2023/10/11 08:25:12;;;;;;;25.67;17.42;;;;;;;16.29;100.00;101283.31;5029096;28;20060;-66
2023/10/11 08:27:38;;;;;;;24.38;16.45;;;;;;;16.32;100.00;101279.84;5028709;28;20029;-64
2023/10/11 08:30:17;;;;;;;25.52;16.05;;;;;;;16.33;100.00;101289.88;5028871;28;20178;-66
2023/10/11 08:32:42;;;;;;;25.25;16.65;;;;;;;16.37;100.00;101294.44;5032622;28;20037;-66
2023/10/11 08:35:16;;;;;;;27.92;16.83;;;;;;;16.47;100.00;101293.25;5040210;28;20033;-65
2023/10/11 08:37:41;;;;;;;24.55;16.67;;;;;;;16.56;100.00;101295.19;5053397;28;20554;-66
2023/10/11 08:40:23;;;;;;;27.17;16.73;;;;;;;16.66;100.00;101294.81;5050413;28;20028;-65
2023/10/11 08:42:52;;;;;;;26.00;16.30;;;;;;;16.75;100.00;101292.78;5039032;28;20047;-65
2023/10/11 08:45:28;;;;;;;25.08;16.08;;;;;;;16.90;100.00;101290.56;5040668;28;20164;-64
2023/10/11 08:47:53;;;;;;;29.02;16.85;;;;;;;17.02;100.00;101301.03;5051597;28;20068;-64
2023/10/11 08:50:19;;;;;;;27.35;16.52;;;;;;;17.10;100.00;101306.56;5051086;28;20082;-65
2023/10/11 08:52:44;;;;;;;24.98;16.58;;;;;;;17.27;100.00;101313.19;5031227;28;20060;-67
2023/10/11 08:55:19;;;;;;;25.52;17.42;;;;;;;17.38;100.00;101297.63;5017885;28;20033;-66
2023/10/11 08:57:47;;;;;;;25.42;16.48;;;;;;;17.49;100.00;101305.59;5011213;28;20048;-65
2023/10/11 09:00:28;;;;;;;26.45;17.35;;;;;;;17.44;100.00;101303.84;5012306;28;20032;-64
2023/10/11 09:02:54;;;;;;;26.95;18.45;;;;;;;17.37;100.00;101317.56;5012466;28;20038;-65
2023/10/11 09:05:28;;;;;;;26.27;17.33;;;;;;;17.34;100.00;101324.63;4994013;28;20084;-64
2023/10/11 09:07:54;;;;;;;26.38;18.77;;;;;;;17.36;100.00;101322.31;5011766;28;20038;-64
2023/10/11 09:10:21;;;;;;;28.15;18.63;;;;;;;17.30;100.00;101321.69;5011799;28;20034;-64
2023/10/11 09:12:49;;;;;;;27.25;19.02;;;;;;;17.33;100.00;101327.78;5012270;28;20057;-64
2023/10/11 09:15:15;;;;;;;29.63;19.77;;;;;;;17.34;100.00;101323.81;5011854;28;20069;-64
2023/10/11 09:17:40;;;;;;;28.27;19.77;;;;;;;17.33;100.00;101323.03;5011752;28;20392;-65
2023/10/11 09:20:23;;;;;;;30.95;20.80;;;;;;;17.37;100.00;101309.16;5011996;28;20034;-64
2023/10/11 09:22:52;;;;;;;31.38;22.10;;;;;;;17.39;100.00;101315.22;5011729;28;20058;-64
2023/10/11 09:25:22;;;;;;;31.38;22.88;;;;;;;17.31;100.00;101323.34;5011920;28;20068;-65
2023/10/11 09:27:50;;;;;;;31.55;22.63;;;;;;;17.29;100.00;101313.66;5023722;28;20040;-64
2023/10/11 09:30:20;;;;;;;32.00;22.75;;;;;;;17.31;100.00;101314.94;5031605;28;20033;-65
2023/10/11 09:32:51;;;;;;;32.47;22.50;;;;;;;17.34;100.00;101316.25;5035642;28;20119;-65
2023/10/11 09:35:29;;;;;;;33.47;22.67;;;;;;;17.40;100.00;101314.91;5044118;28;20029;-65
2023/10/11 09:37:59;;;;;;;31.85;22.85;;;;;;;17.40;100.00;101325.25;5035499;28;20033;-64
2023/10/11 09:40:30;;;;;;;32.25;22.45;;;;;;;17.43;100.00;101333.75;5049920;28;20029;-64
2023/10/11 09:43:00;;;;;;;30.77;22.52;;;;;;;17.36;100.00;101333.50;5011650;28;20049;-64
2023/10/11 09:45:29;;;;;;;31.23;24.33;;;;;;;17.31;100.00;101334.53;5011347;28;20448;-64
2023/10/11 09:47:55;;;;;;;33.15;23.92;;;;;;;17.29;100.00;101336.03;5042422;28;20433;-63
2023/10/11 09:50:26;;;;;;;32.47;24.80;;;;;;;17.24;100.00;101325.06;5050854;28;20025;-63
2023/10/11 09:52:53;;;;;;;32.58;24.13;;;;;;;17.22;100.00;101335.75;5051102;28;20033;-65
2023/10/11 09:55:31;;;;;;;35.20;25.52;;;;;;;17.23;100.00;101343.81;5050897;28;20106;-64
2023/10/11 09:58:11;;;;;;;32.58;24.25;;;;;;;17.22;100.00;101344.16;5050756;28;20044;-63
2023/10/11 10:00:50;;;;;;;35.92;26.40;;;;;;;17.22;100.00;101328.19;5050548;28;20091;-64
2023/10/11 10:03:16;;;;;;;33.40;26.00;;;;;;;17.21;100.00;101332.13;5043816;28;20135;-64
2023/10/11 10:06:06;;;;;;;35.03;26.38;;;;;;;17.25;100.00;101329.47;5037575;28;20033;-64
2023/10/11 10:08:32;;;;;;;32.83;26.42;;;;;;;17.22;100.00;101336.56;5040493;28;20562;-63
2023/10/11 10:10:57;;;;;;;34.03;26.92;;;;;;;17.23;100.00;101327.03;5037920;28;20032;-64
2023/10/11 10:13:26;;;;;;;33.80;26.90;;;;;;;17.22;100.00;101333.78;5041033;28;20033;-63
2023/10/11 10:15:53;;;;;;;33.95;26.63;;;;;;;17.24;100.00;101336.25;5044212;28;20025;-62
2023/10/11 10:18:19;;;;;;;36.35;26.85;;;;;;;17.32;100.00;101326.97;5003586;28;20564;-64
2023/10/11 10:20:46;;;;;;;35.00;26.80;;;;;;;17.38;100.00;101336.78;5036877;28;20377;-63
2023/10/11 10:23:14;;;;;;;35.38;27.00;;;;;;;17.43;100.00;101339.38;5040888;28;20105;-63
2023/10/11 10:25:48;;;;;;;34.63;26.98;;;;;;;17.46;100.00;101335.88;5036407;28;20060;-64
2023/10/11 10:28:32;;;;;;;32.90;27.02;;;;;;;17.44;100.00;101329.81;5040132;28;20041;-62
2023/10/11 10:31:11;;;;;;;33.42;26.63;;;;;;;17.36;100.00;101327.91;5023646;28;20033;-63
2023/10/11 10:33:37;;;;;;;33.92;26.60;;;;;;;17.40;100.00;101334.47;5030167;28;20061;-64
2023/10/11 10:36:21;;;;;;;34.78;26.27;;;;;;;17.39;100.00;101332.00;5020777;28;20025;-62
2023/10/11 10:41:38;;;;;;;33.92;26.08;;;;;;;17.44;100.00;101335.41;5010178;28;20091;-64
2023/10/11 10:44:12;;;;;;;32.35;25.17;;;;;;;17.43;100.00;101338.56;5028633;28;20436;-63
2023/10/11 10:46:53;;;;;;;33.15;25.70;;;;;;;17.45;100.00;101351.03;5046724;28;20054;-65
2023/10/11 10:49:20;;;;;;;34.70;25.52;;;;;;;17.48;100.00;101343.13;5039867;28;20037;-64
2023/10/11 10:51:51;;;;;;;33.90;25.90;;;;;;;17.49;100.00;101348.38;5041638;28;20043;-63
2023/10/11 10:54:23;;;;;;;37.78;26.88;;;;;;;17.50;100.00;101343.63;5039626;28;20073;-66
2023/10/11 10:56:57;;;;;;;33.70;25.90;;;;;;;17.52;100.00;101335.69;5043880;28;20033;-65
2023/10/11 10:59:25;;;;;;;33.47;26.65;;;;;;;17.55;100.00;101335.00;5018683;28;20111;-65
2023/10/11 11:01:52;;;;;;;34.30;25.60;;;;;;;17.49;100.00;101341.97;5040894;28;20103;-65
2023/10/11 11:04:22;;;;;;;37.25;26.88;;;;;;;17.48;100.00;101338.34;5043026;28;20104;-65
2023/10/11 11:06:49;;;;;;;36.05;25.63;;;;;;;17.51;100.00;101339.66;5038425;28;20037;-63
2023/10/11 11:09:25;;;;;;;34.88;25.92;;;;;;;17.53;100.00;101342.91;5032875;28;20029;-64
2023/10/11 11:11:58;;;;;;;32.85;24.77;;;;;;;17.49;100.00;101334.38;5020498;28;20855;-64
2023/10/11 11:14:24;;;;;;;36.08;27.20;;;;;;;17.47;100.00;101319.94;5047724;28;20026;-64
2023/10/11 11:17:00;;;;;;;34.72;26.75;;;;;;;17.40;100.00;101306.50;5038215;28;20041;-65
2023/10/11 11:19:26;;;;;;;34.55;26.65;;;;;;;17.47;100.00;101314.34;5049060;28;20100;-64
2023/10/11 11:22:19;;;;;;;34.88;26.85;;;;;;;17.61;100.00;101311.28;5042021;28;20147;-64
2023/10/11 11:24:45;;;;;;;33.70;26.02;;;;;;;17.54;100.00;101314.63;5012087;28;20380;-65
2023/10/11 11:27:25;;;;;;;32.97;26.40;;;;;;;17.61;100.00;101331.66;5025752;28;20404;-65
2023/10/11 11:29:52;;;;;;;33.78;25.88;;;;;;;17.56;100.00;101314.25;5049743;28;20135;-65
2023/10/11 11:32:36;;;;;;;36.75;27.00;;;;;;;17.52;100.00;101307.72;5040549;28;20041;-65
2023/10/11 11:35:04;;;;;;;33.85;26.65;;;;;;;17.53;100.00;101296.19;5040670;28;20135;-63
2023/10/11 11:37:30;;;;;;;35.35;26.45;;;;;;;17.53;100.00;101281.38;5036586;28;20025;-63
2023/10/11 11:42:47;;;;;;;35.63;27.33;;;;;;;17.57;100.00;101282.34;5029572;28;20076;-62
2023/10/11 11:45:16;;;;;;;35.92;27.08;;;;;;;17.57;100.00;101276.75;5029035;28;20037;-65
2023/10/11 11:47:55;;;;;;;37.50;27.85;;;;;;;17.57;100.00;101287.94;5029076;28;20026;-63
2023/10/11 11:50:22;;;;;;;34.20;27.70;;;;;;;17.62;100.00;101277.34;5029734;28;20140;-63
2023/10/11 11:52:47;;;;;;;37.35;27.27;;;;;;;17.66;100.00;101271.06;5029059;28;20044;-63
2023/10/11 11:55:13;;;;;;;36.58;26.85;;;;;;;17.71;100.00;101265.25;5028824;28;20033;-63
2023/10/11 11:57:38;;;;;;;35.33;25.70;;;;;;;17.79;100.00;101264.34;5028491;28;20045;-64
2023/10/11 12:00:26;;;;;;;34.65;26.02;;;;;;;17.81;100.00;101248.03;5028991;28;20472;-63
2023/10/11 12:02:52;;;;;;;37.65;26.80;;;;;;;17.96;100.00;101228.91;5028647;28;20125;-64
2023/10/11 12:05:18;;;;;;;31.85;25.27;;;;;;;18.07;100.00;101227.31;5028983;28;20060;-62
2023/10/11 12:07:44;;;;;;;37.63;24.88;;;;;;;18.17;100.00;101226.06;5032321;28;20041;-63
2023/10/11 12:10:25;;;;;;;36.53;25.40;;;;;;;18.23;100.00;101231.06;5032853;28;20030;-64